createdAt,value
2023-03-06T00:42:38.672Z,54.08
2023-03-06T00:44:37.741Z,56.99
2023-03-06T00:45:37.806Z,54.42
2023-03-06T00:46:37.799Z,55.55
2023-03-06T00:47:37.844Z,55.97
2023-03-06T00:48:37.901Z,55.16
2023-03-06T00:49:38.652Z,56.02
2023-03-06T00:50:37.985Z,55.59
2023-03-06T00:51:38.014Z,53.34
2023-03-06T00:52:38.052Z,51.07
2023-03-06T00:53:38.093Z,56.65
2023-03-06T00:54:38.135Z,56.91
2023-03-06T00:55:38.180Z,51.96
2023-03-06T00:56:38.236Z,55.25
2023-03-06T00:57:38.253Z,51.50
2023-03-06T00:58:38.375Z,54.26
2023-03-06T00:59:38.348Z,54.02
2023-03-06T01:00:38.431Z,53.87
2023-03-06T01:01:38.518Z,51.52
2023-03-06T01:02:38.463Z,56.33
2023-03-06T01:03:38.512Z,56.41
2023-03-06T01:04:38.626Z,55.56
2023-03-06T01:05:38.607Z,55.89
2023-03-06T01:06:38.649Z,55.22
2023-03-06T01:07:38.701Z,54.60
2023-03-06T01:08:38.737Z,55.38
2023-03-06T01:09:38.773Z,54.99
2023-03-06T01:10:38.809Z,54.69
2023-03-06T01:11:38.854Z,52.58
2023-03-06T01:12:38.984Z,58.57
2023-03-06T01:13:39.031Z,55.24
2023-03-06T01:14:38.992Z,55.46
2023-03-06T01:15:39.037Z,57.59
2023-03-06T01:16:39.093Z,52.00
2023-03-06T01:17:39.120Z,55.18
2023-03-06T01:18:39.164Z,54.48
2023-03-06T01:19:39.205Z,55.06
2023-03-06T01:20:39.374Z,55.14
2023-03-06T01:21:39.297Z,57.35
2023-03-06T01:22:39.358Z,53.77
2023-03-06T01:23:39.378Z,57.20
2023-03-06T01:24:39.428Z,55.21
2023-03-06T01:25:39.476Z,55.62
2023-03-06T01:26:39.519Z,55.30
2023-03-06T01:27:39.570Z,56.48
2023-03-06T01:28:39.619Z,53.64
2023-03-06T01:29:39.705Z,53.09
2023-03-06T01:30:39.703Z,56.68
2023-03-06T01:31:39.813Z,58.72
2023-03-06T01:32:39.958Z,54.75
2023-03-06T01:33:39.835Z,55.58
2023-03-06T01:34:39.871Z,52.16
2023-03-06T01:35:39.945Z,55.61
2023-03-06T01:36:39.942Z,57.89
2023-03-06T01:37:39.997Z,55.20
2023-03-06T01:38:40.039Z,55.89
2023-03-06T01:39:40.082Z,57.76
2023-03-06T01:40:40.115Z,57.91
2023-03-06T01:41:40.149Z,57.56
2023-03-06T01:42:40.197Z,55.42
2023-03-06T01:43:40.248Z,55.37
2023-03-06T01:44:40.275Z,53.82
2023-03-06T01:45:40.319Z,55.70
2023-03-06T01:46:40.368Z,52.76
2023-03-06T01:47:40.408Z,56.96
2023-03-06T01:48:40.444Z,58.11
2023-03-06T01:49:40.589Z,57.97
2023-03-06T01:50:40.526Z,57.78
2023-03-06T01:51:40.571Z,54.06
2023-03-06T01:52:40.608Z,56.98
2023-03-06T01:53:40.643Z,57.22
2023-03-06T01:54:40.693Z,57.05
2023-03-06T01:55:40.734Z,58.40
2023-03-06T06:39:47.784Z,141.57
2023-03-06T07:12:47.748Z,249.76
2023-03-06T07:13:48.761Z,250.00
2023-03-06T07:17:49.915Z,248.95
2023-03-06T08:07:47.822Z,201.23
2023-03-06T08:21:47.829Z,108.43
2023-03-06T08:42:47.837Z,24.71
2023-03-06T08:43:47.846Z,25.39
2023-03-06T08:51:47.717Z,25.86
2023-03-06T08:52:47.761Z,25.88
2023-03-06T08:53:47.807Z,25.21
2023-03-06T08:54:47.803Z,25.00
2023-03-06T08:55:47.812Z,24.75
2023-03-06T08:56:47.810Z,26.32
2023-03-06T08:57:47.821Z,26.90
2023-03-06T08:58:47.836Z,27.29
2023-03-06T08:59:47.856Z,27.22
2023-03-06T09:00:47.942Z,25.00
2023-03-06T09:01:47.894Z,27.32
2023-03-06T09:02:47.922Z,24.81
2023-03-06T09:03:47.935Z,26.30
2023-03-06T09:04:47.947Z,25.00
2023-03-06T09:05:47.969Z,25.81
2023-03-06T09:07:48.011Z,26.10
2023-03-06T09:08:48.044Z,25.00
2023-03-06T09:09:48.057Z,25.73
2023-03-06T09:10:48.119Z,25.15
2023-03-06T09:11:48.090Z,28.19
2023-03-06T09:12:51.221Z,26.02
2023-03-06T09:13:48.081Z,33.83
2023-03-06T09:14:48.314Z,46.32
2023-03-06T09:15:48.071Z,58.50
2023-03-06T09:16:48.256Z,66.87
2023-03-06T09:17:48.169Z,76.63
2023-03-06T09:18:48.067Z,86.25
2023-03-06T09:19:48.038Z,93.23
2023-03-06T09:20:48.038Z,98.95
2023-03-06T09:21:48.027Z,104.05
2023-03-06T09:22:48.026Z,107.33
2023-03-06T09:23:48.020Z,109.13
2023-03-06T09:25:48.011Z,115.62
2023-03-06T09:26:49.872Z,118.87
2023-03-06T09:28:47.977Z,78.39
2023-03-06T09:33:47.963Z,85.20
2023-03-06T09:34:47.948Z,92.36
2023-03-06T09:35:47.996Z,96.98
2023-03-06T09:36:56.900Z,102.00
2023-03-06T09:38:47.980Z,103.99
2023-03-06T09:39:47.924Z,108.45
2023-03-06T09:40:47.913Z,115.67
2023-03-06T13:04:54.949Z,203.93
2023-03-06T14:14:53.305Z,192.07
2023-03-06T14:15:53.452Z,191.92
2023-03-06T14:16:53.482Z,192.51
2023-03-06T14:17:53.471Z,191.87
2023-03-06T14:18:53.523Z,192.02
2023-03-06T14:19:53.582Z,191.62
2023-03-06T14:28:53.939Z,189.89
2023-03-06T14:54:54.210Z,186.74
2023-03-06T14:55:54.105Z,186.18
2023-03-06T14:56:54.137Z,185.64
2023-03-06T14:57:54.114Z,186.16
2023-03-06T14:58:54.122Z,185.93
2023-03-06T14:59:54.112Z,186.38
2023-03-06T15:00:54.230Z,185.32
2023-03-06T15:01:54.127Z,185.15
2023-03-06T15:02:54.173Z,185.05
2023-03-06T15:03:54.134Z,184.97
2023-03-06T15:04:54.141Z,184.55
2023-03-06T15:05:54.153Z,183.98
2023-03-06T15:06:54.193Z,184.18
2023-03-06T15:07:54.155Z,183.17
2023-03-06T15:08:54.168Z,183.21
2023-03-06T15:09:54.170Z,183.03
2023-03-06T15:10:54.228Z,182.57
2023-03-06T15:11:54.230Z,182.58
2023-03-06T15:12:54.193Z,183.07
2023-03-06T15:13:54.213Z,183.16
2023-03-06T15:14:54.212Z,182.66
2023-03-06T15:15:54.263Z,183.16
2023-03-06T15:16:54.248Z,182.63
2023-03-06T15:17:54.239Z,182.26
2023-03-06T15:18:54.257Z,182.90
2023-03-06T15:19:54.491Z,182.93
2023-03-06T15:20:54.285Z,182.80
2023-03-06T15:21:54.293Z,182.64
2023-03-06T15:22:54.305Z,182.40
2023-03-06T15:23:54.316Z,182.31
2023-03-06T15:24:54.424Z,181.90
2023-03-06T15:25:54.365Z,182.02
2023-03-06T15:26:54.373Z,181.78
2023-03-06T15:27:54.401Z,182.01
2023-03-06T15:29:03.408Z,181.15
2023-03-06T15:29:55.405Z,181.20
2023-03-06T15:30:54.394Z,181.40
2023-03-06T15:31:54.426Z,181.55
2023-03-06T15:32:54.381Z,181.33
2023-03-06T15:33:54.381Z,181.28
2023-03-06T15:34:54.402Z,180.75
2023-03-06T15:35:54.402Z,179.91
2023-03-06T15:36:54.391Z,180.94
2023-03-06T15:37:54.358Z,179.76
2023-03-06T15:38:54.350Z,178.71
2023-03-06T15:39:54.351Z,179.89
2023-03-06T15:40:54.340Z,179.42
2023-03-06T15:41:54.331Z,178.32
2023-03-06T15:42:54.330Z,178.52
2023-03-06T15:43:54.997Z,178.63
2023-03-06T15:44:54.319Z,177.95
2023-03-06T15:45:54.311Z,177.26
2023-03-06T15:47:07.784Z,176.88
2023-03-06T15:47:55.293Z,176.93
2023-03-06T15:48:54.287Z,176.94
2023-03-06T15:49:54.283Z,176.88
2023-03-06T15:50:54.294Z,176.35
2023-03-06T15:51:54.264Z,175.81
2023-03-06T15:52:54.255Z,175.90
2023-03-06T15:53:59.782Z,176.08
2023-03-06T15:54:55.260Z,176.13
2023-03-06T15:55:54.250Z,176.16
2023-03-06T15:56:54.232Z,176.31
2023-03-06T15:57:54.226Z,176.35
2023-03-06T15:58:55.002Z,176.66
2023-03-06T15:59:54.238Z,175.72
2023-03-06T16:00:54.252Z,175.57
2023-03-06T16:01:54.208Z,176.54
2023-03-06T16:02:54.186Z,175.61
2023-03-06T16:03:54.204Z,175.81
2023-03-06T16:04:54.215Z,175.57
2023-03-06T16:05:54.168Z,175.91
2023-03-06T16:06:54.168Z,175.78
2023-03-06T16:07:54.172Z,175.03
2023-03-06T16:08:54.230Z,174.42
2023-03-06T16:09:54.257Z,174.25
2023-03-06T16:10:54.312Z,174.78
2023-03-06T16:11:54.355Z,174.74
2023-03-06T16:12:54.413Z,174.29
2023-03-06T16:13:54.456Z,174.76
2023-03-06T16:14:54.506Z,174.61
2023-03-06T16:15:55.010Z,174.61
2023-03-06T16:16:54.676Z,174.71
2023-03-06T16:17:54.671Z,174.86
2023-03-06T16:18:54.728Z,174.87
2023-03-06T16:19:54.782Z,173.71
2023-03-06T16:20:54.841Z,173.45
2023-03-06T16:21:54.910Z,173.44
2023-03-06T16:22:54.929Z,173.99
2023-03-06T16:23:54.999Z,173.65
2023-03-06T16:24:55.051Z,173.28
2023-03-06T16:25:55.110Z,173.54
2023-03-06T16:26:55.189Z,173.64
2023-03-06T16:27:55.215Z,174.12
2023-03-06T16:28:55.265Z,174.30
2023-03-06T16:29:55.304Z,174.21
2023-03-06T16:30:55.461Z,173.25
2023-03-06T16:31:55.496Z,173.83
2023-03-06T16:32:55.478Z,173.26
2023-03-06T16:33:55.542Z,172.01
2023-03-06T16:34:55.603Z,171.17
2023-03-06T16:35:55.692Z,171.94
2023-03-06T16:36:55.723Z,172.49
2023-03-06T16:37:55.780Z,171.78
2023-03-06T16:38:55.855Z,171.61
2023-03-06T16:39:55.901Z,171.43
2023-03-06T16:40:55.963Z,170.69
2023-03-06T16:41:56.032Z,170.81
2023-03-06T16:42:56.153Z,171.19
2023-03-06T16:43:56.196Z,171.93
2023-03-06T16:44:56.238Z,171.47
2023-03-06T16:45:56.322Z,171.79
2023-03-06T16:46:56.382Z,172.24
2023-03-06T16:47:57.820Z,172.28
2023-03-06T16:48:56.436Z,172.79
2023-03-06T16:49:56.515Z,172.79
2023-03-06T16:50:56.559Z,173.35
2023-03-06T16:51:56.612Z,172.53
2023-03-06T16:52:56.691Z,171.76
2023-03-06T16:53:56.753Z,172.25
2023-03-06T16:54:56.796Z,171.92
2023-03-06T16:55:56.842Z,171.79
2023-03-06T16:56:56.900Z,171.87
2023-03-06T16:57:56.963Z,171.96
2023-03-06T16:58:57.019Z,171.19
2023-03-06T16:59:57.128Z,171.34
2023-03-06T17:00:57.122Z,171.45
2023-03-06T17:11:57.314Z,169.67
2023-03-06T17:12:57.321Z,168.54
2023-03-06T17:13:57.319Z,169.32
2023-03-06T17:14:57.344Z,169.93
2023-03-06T17:15:57.359Z,169.96
2023-03-06T17:16:57.346Z,169.77
2023-03-06T17:17:57.353Z,169.06
2023-03-06T17:18:57.352Z,169.26
2023-03-06T17:19:57.357Z,169.13
2023-03-06T17:20:57.363Z,169.13
2023-03-06T17:21:57.350Z,169.21
2023-03-06T17:22:57.363Z,168.79
2023-03-06T17:23:57.389Z,168.70
2023-03-06T17:24:57.433Z,168.66
2023-03-06T17:25:57.514Z,167.82
2023-03-06T17:26:57.460Z,167.23
2023-03-06T17:27:57.493Z,167.41
2023-03-06T17:28:57.524Z,167.36
2023-03-06T17:29:57.527Z,166.43
2023-03-06T17:30:57.600Z,165.49
2023-03-06T17:31:57.564Z,165.36
2023-03-06T17:32:57.575Z,165.44
2023-03-06T17:33:57.591Z,165.27
2023-03-06T17:34:57.590Z,164.88
2023-03-06T17:35:57.665Z,164.76
2023-03-06T17:36:57.643Z,163.41
2023-03-06T17:37:57.627Z,163.81
2023-03-06T17:38:57.626Z,163.87
2023-03-06T17:39:57.638Z,163.77
2023-03-06T17:40:57.635Z,162.70
2023-03-06T17:41:57.706Z,162.14
2023-03-06T17:42:57.633Z,163.67
2023-03-06T17:43:57.632Z,164.75
2023-03-06T17:44:57.641Z,164.59
2023-03-06T17:45:57.640Z,164.20
2023-03-06T17:46:57.626Z,165.16
2023-03-06T17:47:57.637Z,165.04
2023-03-06T17:48:57.638Z,164.05
2023-03-06T17:49:57.631Z,164.63
2023-03-06T17:50:57.654Z,164.21
2023-03-06T17:51:57.646Z,164.38
2023-03-06T17:52:57.640Z,164.86
2023-03-06T17:53:57.671Z,165.05
2023-03-06T17:54:57.631Z,165.39
2023-03-06T17:55:57.641Z,165.71
2023-03-06T17:56:57.633Z,165.01
2023-03-06T17:57:57.642Z,164.32
2023-03-06T17:58:57.637Z,163.30
2023-03-06T17:59:57.701Z,163.80
2023-03-06T18:00:57.672Z,163.53
2023-03-06T18:01:57.705Z,163.90
2023-03-06T18:02:57.676Z,163.32
2023-03-06T18:03:57.678Z,163.48
2023-03-06T18:04:57.747Z,163.84
2023-03-06T18:05:57.703Z,163.57
2023-03-06T18:06:57.691Z,163.34
2023-03-06T18:07:58.053Z,163.41
2023-03-06T18:08:57.740Z,162.49
2023-03-06T18:09:57.772Z,162.19
2023-03-06T18:10:57.768Z,162.62
2023-03-06T18:11:57.757Z,162.25
2023-03-06T18:12:57.782Z,162.10
2023-03-06T18:13:57.791Z,162.17
2023-03-06T18:14:57.790Z,162.30
2023-03-06T18:15:57.801Z,162.42
2023-03-06T18:16:57.805Z,161.91
2023-03-06T18:17:57.790Z,161.61
2023-03-06T18:18:57.798Z,162.61
2023-03-06T18:19:57.869Z,162.15
2023-03-06T18:20:57.806Z,161.03
2023-03-06T18:21:57.812Z,161.93
2023-03-06T18:22:57.809Z,162.02
2023-03-06T18:23:57.849Z,162.14
2023-03-06T18:24:57.836Z,161.10
2023-03-06T18:25:57.850Z,160.33
2023-03-06T18:26:57.869Z,161.42
2023-03-06T18:27:57.876Z,160.57
2023-03-06T18:28:57.865Z,159.85
2023-03-06T18:29:57.905Z,159.82
2023-03-06T18:30:57.875Z,160.80
2023-03-06T18:31:57.975Z,159.91
2023-03-06T18:32:57.907Z,159.62
2023-03-06T18:33:57.918Z,160.32
2023-03-06T18:34:57.925Z,160.53
2023-03-06T18:35:57.964Z,159.49
2023-03-06T18:36:57.942Z,160.01
2023-03-06T18:37:57.939Z,159.91
2023-03-06T18:38:57.954Z,159.99
2023-03-06T18:39:58.054Z,160.56
2023-03-06T18:40:57.962Z,159.90
2023-03-06T18:41:57.973Z,158.67
2023-03-06T18:42:57.972Z,158.65
2023-03-06T18:43:57.986Z,158.95
2023-03-06T18:44:58.061Z,159.84
2023-03-06T18:45:58.036Z,159.55
2023-03-06T18:46:58.023Z,159.70
2023-03-06T18:47:57.989Z,159.38
2023-03-06T18:48:58.017Z,160.13
2023-03-06T18:49:58.014Z,158.99
2023-03-06T18:50:58.060Z,159.18
2023-03-06T18:51:58.066Z,158.39
2023-03-06T18:52:58.076Z,158.55
2023-03-06T18:53:58.185Z,158.85
2023-03-06T18:54:58.112Z,158.67
2023-03-06T18:55:58.211Z,158.96
2023-03-06T18:56:58.212Z,158.17
2023-03-06T18:57:58.221Z,157.79
2023-03-06T18:58:58.240Z,157.51
2023-03-06T18:59:58.232Z,158.79
2023-03-06T19:00:59.486Z,157.15
2023-03-06T19:01:58.284Z,158.05
2023-03-06T19:02:58.270Z,157.70
2023-03-06T19:03:58.288Z,158.07
2023-03-06T19:04:58.287Z,157.71
2023-03-06T19:05:58.327Z,157.30
2023-03-06T19:06:58.340Z,157.76
2023-03-06T19:07:58.348Z,157.60
2023-03-06T19:08:58.365Z,157.29
2023-03-06T19:09:58.370Z,157.54
2023-03-06T19:10:58.396Z,158.42
2023-03-06T19:11:58.420Z,157.54
2023-03-06T19:12:58.420Z,157.95
2023-03-06T19:13:58.431Z,158.00
2023-03-06T19:14:58.431Z,157.13
2023-03-06T19:15:58.531Z,157.80
2023-03-06T19:16:58.546Z,156.95
2023-03-06T19:17:58.567Z,156.89
2023-03-06T19:18:58.567Z,156.47
2023-03-06T19:19:58.583Z,157.32
2023-03-06T19:20:58.599Z,156.92
2023-03-06T19:21:58.735Z,156.91
2023-03-06T19:22:58.659Z,157.18
2023-03-06T19:23:58.672Z,156.67
2023-03-06T19:24:58.688Z,156.67
2023-03-06T19:25:59.581Z,156.12
2023-03-06T19:26:58.764Z,156.46
2023-03-06T19:27:59.590Z,156.83
2023-03-06T19:28:58.778Z,156.59
2023-03-06T19:29:58.800Z,156.29
2023-03-06T19:30:58.833Z,156.39
2023-03-06T19:31:58.980Z,156.26
2023-03-06T19:32:58.863Z,155.70
2023-03-06T19:33:58.924Z,155.48
2023-03-06T19:34:58.923Z,155.63
2023-03-06T19:35:58.979Z,156.15
2023-03-06T19:36:58.959Z,156.13
2023-03-06T19:37:58.976Z,157.07
2023-03-06T19:38:59.046Z,155.78
2023-03-06T19:39:59.057Z,155.20
2023-03-06T19:40:59.592Z,155.67
2023-03-06T19:41:59.053Z,155.16
2023-03-06T19:42:59.058Z,155.87
2023-03-06T19:43:59.113Z,154.79
2023-03-06T19:44:59.158Z,154.88
2023-03-06T19:45:59.115Z,154.82
2023-03-06T19:46:59.140Z,154.92
2023-03-06T19:47:59.149Z,154.44
2023-03-06T19:48:59.184Z,155.12
2023-03-06T19:49:59.195Z,153.63
2023-03-06T19:50:59.215Z,154.51
2023-03-06T19:51:59.237Z,154.68
2023-03-06T19:52:59.268Z,154.29
2023-03-06T19:53:59.278Z,154.38
2023-03-06T19:54:59.303Z,154.39
2023-03-06T19:55:59.337Z,153.40
2023-03-06T19:56:59.357Z,153.77
2023-03-06T19:57:59.370Z,153.43
2023-03-06T19:58:59.399Z,153.51
2023-03-06T19:59:59.418Z,153.50
2023-03-06T20:00:59.465Z,153.49
2023-03-06T20:01:59.477Z,153.04
2023-03-06T20:02:59.508Z,153.76
2023-03-06T20:03:59.913Z,153.68
2023-03-06T20:04:59.555Z,152.97
2023-03-06T20:05:59.569Z,152.41
2023-03-06T20:06:59.600Z,153.15
2023-03-06T20:07:59.617Z,153.52
2023-03-06T20:09:00.131Z,152.21
2023-03-06T20:09:59.659Z,153.50
2023-03-06T20:10:59.710Z,151.99
2023-03-06T20:11:59.692Z,151.85
2023-03-06T20:12:59.723Z,151.75
2023-03-06T20:13:59.742Z,151.48
2023-03-06T20:14:59.775Z,152.13
2023-03-06T20:15:59.840Z,151.77
2023-03-06T20:16:59.829Z,151.19
2023-03-06T20:17:59.844Z,151.79
2023-03-06T20:18:59.871Z,151.26
2023-03-06T20:19:59.897Z,150.74
2023-03-06T20:20:59.912Z,150.62
2023-03-06T20:22:00.612Z,150.50
2023-03-06T20:23:00.022Z,151.02
2023-03-06T20:23:59.989Z,150.99
2023-03-06T20:25:00.015Z,151.43
2023-03-06T20:26:00.044Z,151.05
2023-03-06T20:27:00.063Z,151.57
2023-03-06T20:28:00.122Z,151.09
2023-03-06T20:29:00.094Z,149.96
2023-03-06T20:30:00.139Z,150.33
2023-03-06T20:31:00.232Z,150.26
2023-03-06T20:32:00.180Z,149.80
2023-03-06T20:33:00.215Z,149.84
2023-03-06T20:34:00.229Z,150.07
2023-03-06T20:35:01.120Z,150.29
2023-03-06T20:36:00.372Z,150.28
2023-03-06T20:37:00.314Z,150.39
2023-03-06T20:38:01.105Z,149.65
2023-03-06T20:39:00.370Z,149.61
2023-03-06T20:40:00.404Z,150.20
2023-03-06T20:41:00.437Z,149.76
2023-03-06T20:42:00.435Z,150.19
2023-03-06T20:43:00.479Z,149.60
2023-03-06T20:44:00.522Z,149.09
2023-03-06T20:45:00.528Z,149.39
2023-03-06T20:46:00.603Z,150.54
2023-03-06T20:47:00.569Z,149.52
2023-03-06T20:48:00.603Z,149.05
2023-03-06T20:49:00.632Z,148.94
2023-03-06T20:50:01.682Z,149.11
2023-03-06T20:51:00.697Z,149.41
2023-03-06T20:52:00.709Z,148.92
2023-03-06T20:53:00.736Z,148.11
2023-03-06T20:54:00.759Z,148.48
2023-03-06T20:55:00.793Z,148.44
2023-03-06T20:56:01.118Z,148.39
2023-03-06T20:57:00.838Z,147.93
2023-03-06T20:58:00.859Z,148.14
2023-03-06T20:59:00.899Z,146.99
2023-03-06T21:00:01.139Z,146.98
2023-03-06T21:01:02.456Z,148.46
2023-03-06T21:02:01.052Z,148.36
2023-03-06T22:10:03.677Z,145.57
2023-03-06T22:11:03.648Z,145.68
2023-03-06T22:16:03.650Z,145.60
2023-03-06T22:24:03.651Z,143.58
2023-03-06T22:27:03.664Z,145.16
2023-03-06T22:32:03.391Z,143.90
2023-03-06T22:35:03.323Z,144.47
2023-03-06T22:36:03.365Z,143.26
2023-03-06T22:37:03.370Z,143.63
2023-03-06T22:38:03.393Z,142.34
2023-03-06T22:39:03.399Z,142.25
2023-03-06T22:40:03.436Z,142.70
2023-03-06T22:41:03.474Z,142.97
2023-03-06T22:42:03.484Z,143.28
2023-03-06T22:43:03.503Z,143.89
2023-03-06T22:44:03.527Z,143.45
2023-03-06T22:45:03.536Z,142.83
2023-03-06T22:46:03.623Z,141.88
2023-03-06T22:47:03.593Z,143.37
2023-03-06T22:48:10.822Z,142.39
2023-03-06T22:49:04.613Z,142.43
2023-03-06T22:50:03.596Z,142.46
2023-03-06T22:51:03.596Z,142.49
2023-03-06T22:52:03.578Z,142.81
2023-03-06T22:53:03.574Z,141.31
2023-03-06T22:54:03.576Z,142.24
2023-03-06T22:55:03.566Z,141.33
2023-03-06T22:56:03.557Z,142.79
2023-03-06T22:57:03.557Z,141.55
2023-03-06T22:58:03.550Z,139.74
2023-03-06T22:59:03.531Z,140.86
2023-03-06T23:00:03.547Z,141.54
2023-03-06T23:01:03.547Z,139.67
2023-03-06T23:02:03.519Z,140.15
2023-03-06T23:03:03.587Z,139.88
2023-03-06T23:04:03.565Z,141.25
2023-03-06T23:05:03.504Z,140.62
2023-03-06T23:06:03.498Z,142.82
2023-03-06T23:07:03.509Z,140.52
2023-03-06T23:08:03.536Z,140.91
2023-03-06T23:09:03.640Z,141.01
2023-03-06T23:10:03.590Z,140.07
2023-03-06T23:11:03.616Z,140.60
2023-03-06T23:12:03.638Z,138.99
2023-03-06T23:13:03.664Z,140.89
2023-03-06T23:14:03.685Z,139.95
2023-03-06T23:15:03.771Z,142.13
2023-03-06T23:16:03.860Z,139.99
2023-03-06T23:27:04.030Z,139.04
2023-03-06T23:28:04.047Z,138.74
2023-03-06T23:29:04.069Z,139.16
2023-03-06T23:30:04.074Z,140.24
2023-03-06T23:31:04.152Z,139.50
2023-03-06T23:32:04.174Z,139.39
2023-03-06T23:33:04.146Z,139.00
2023-03-06T23:34:04.178Z,138.98
2023-03-06T23:35:04.199Z,139.16
2023-03-06T23:36:04.209Z,139.61
2023-03-06T23:37:04.248Z,138.14
2023-03-06T23:38:04.278Z,139.91
2023-03-06T23:39:04.291Z,139.54
2023-03-06T23:40:04.316Z,139.84
2023-03-06T23:41:04.374Z,138.49
2023-03-06T23:42:04.364Z,139.49
2023-03-06T23:43:04.687Z,139.20
2023-03-06T23:44:04.411Z,139.15
2023-03-06T23:45:04.444Z,139.82
2023-03-06T23:46:04.500Z,138.07
2023-03-06T23:47:04.485Z,137.96
2023-03-06T23:48:04.516Z,138.18
2023-03-06T23:49:04.546Z,138.07
2023-03-06T23:50:04.579Z,138.37
2023-03-06T23:51:04.599Z,138.33
2023-03-06T23:52:04.646Z,137.97
2023-03-06T23:53:04.674Z,138.53
2023-03-06T23:54:04.719Z,137.65
2023-03-06T23:55:04.809Z,138.09
2023-03-06T23:56:04.754Z,138.31
2023-03-06T23:57:04.805Z,140.06
2023-03-06T23:58:05.690Z,138.18
2023-03-06T23:59:04.828Z,138.76
